sensor_id;sensor_type;location;lat;lon;timestamp;pressure;altitude;pressure_sealevel;temperature;humidity
75513;BME280;64090;49.770;18.760;2023-03-01T00:02:38;98798.16;;;-5.49;79.22
75513;BME280;64090;49.770;18.760;2023-03-01T00:05:46;98803.34;;;-5.50;79.58
75513;BME280;64090;49.770;18.760;2023-03-01T00:08:49;98805.65;;;-5.51;79.69
75513;BME280;64090;49.770;18.760;2023-03-01T00:11:52;98803.50;;;-5.53;79.44
75513;BME280;64090;49.770;18.760;2023-03-01T00:14:55;98802.30;;;-5.56;79.59
75513;BME280;64090;49.770;18.760;2023-03-01T00:17:58;98805.13;;;-5.57;79.74
75513;BME280;64090;49.770;18.760;2023-03-01T00:21:02;98807.65;;;-5.59;79.56
75513;BME280;64090;49.770;18.760;2023-03-01T00:24:06;98805.17;;;-5.62;79.64
75513;BME280;64090;49.770;18.760;2023-03-01T00:27:09;98802.70;;;-5.64;79.38
75513;BME280;64090;49.770;18.760;2023-03-01T00:30:12;98796.02;;;-5.65;79.31
75513;BME280;64090;49.770;18.760;2023-03-01T00:33:16;98799.09;;;-5.68;79.40
75513;BME280;64090;49.770;18.760;2023-03-01T00:36:19;98791.51;;;-5.72;79.55
75513;BME280;64090;49.770;18.760;2023-03-01T00:39:22;98788.86;;;-5.74;79.34
75513;BME280;64090;49.770;18.760;2023-03-01T00:42:25;98789.75;;;-5.75;79.22
75513;BME280;64090;49.770;18.760;2023-03-01T00:45:28;98786.13;;;-5.75;79.59
75513;BME280;64090;49.770;18.760;2023-03-01T00:48:34;98783.95;;;-5.76;79.85
75513;BME280;64090;49.770;18.760;2023-03-01T00:51:37;98783.05;;;-5.79;79.71
75513;BME280;64090;49.770;18.760;2023-03-01T00:54:42;98780.46;;;-5.82;79.68
75513;BME280;64090;49.770;18.760;2023-03-01T00:57:45;98778.11;;;-5.83;79.87
75513;BME280;64090;49.770;18.760;2023-03-01T01:00:47;98775.41;;;-5.85;79.57
75513;BME280;64090;49.770;18.760;2023-03-01T01:03:53;98777.65;;;-5.84;79.88
75513;BME280;64090;49.770;18.760;2023-03-01T01:06:57;98781.10;;;-5.84;80.02
75513;BME280;64090;49.770;18.760;2023-03-01T01:10:00;98783.80;;;-5.86;80.27
75513;BME280;64090;49.770;18.760;2023-03-01T01:13:03;98783.04;;;-5.89;79.99
75513;BME280;64090;49.770;18.760;2023-03-01T01:16:07;98780.41;;;-5.92;79.62
75513;BME280;64090;49.770;18.760;2023-03-01T01:19:11;98780.09;;;-5.95;80.18
75513;BME280;64090;49.770;18.760;2023-03-01T01:22:14;98776.11;;;-5.98;80.24
75513;BME280;64090;49.770;18.760;2023-03-01T01:25:17;98768.70;;;-6.02;80.14
75513;BME280;64090;49.770;18.760;2023-03-01T01:28:20;98768.98;;;-6.04;79.95
75513;BME280;64090;49.770;18.760;2023-03-01T01:31:24;98771.47;;;-6.05;80.15
75513;BME280;64090;49.770;18.760;2023-03-01T01:34:27;98775.35;;;-6.07;80.19
75513;BME280;64090;49.770;18.760;2023-03-01T01:37:31;98778.17;;;-6.08;79.84
75513;BME280;64090;49.770;18.760;2023-03-01T01:40:43;98773.39;;;-6.09;80.08
75513;BME280;64090;49.770;18.760;2023-03-01T01:43:49;98768.44;;;-6.10;80.05
75513;BME280;64090;49.770;18.760;2023-03-01T01:50:11;98767.69;;;-6.13;80.65
75513;BME280;64090;49.770;18.760;2023-03-01T01:53:19;98768.95;;;-6.14;80.73
75513;BME280;64090;49.770;18.760;2023-03-01T01:56:24;98762.25;;;-6.14;80.55
75513;BME280;64090;49.770;18.760;2023-03-01T01:59:28;98760.89;;;-6.15;80.76
75513;BME280;64090;49.770;18.760;2023-03-01T02:02:33;98760.09;;;-6.16;81.06
75513;BME280;64090;49.770;18.760;2023-03-01T02:05:57;98759.45;;;-6.17;80.57
75513;BME280;64090;49.770;18.760;2023-03-01T02:09:07;98754.33;;;-6.18;80.92
75513;BME280;64090;49.770;18.760;2023-03-01T02:12:16;98753.34;;;-6.19;80.75
75513;BME280;64090;49.770;18.760;2023-03-01T02:15:20;98746.55;;;-6.22;80.47
75513;BME280;64090;49.770;18.760;2023-03-01T02:18:24;98740.44;;;-6.23;80.44
75513;BME280;64090;49.770;18.760;2023-03-01T02:21:38;98735.27;;;-6.23;80.37
75513;BME280;64090;49.770;18.760;2023-03-01T02:25:08;98732.37;;;-6.21;80.67
75513;BME280;64090;49.770;18.760;2023-03-01T02:31:21;98726.52;;;-6.10;80.65
75513;BME280;64090;49.770;18.760;2023-03-01T02:34:42;98726.99;;;-6.09;80.94
75513;BME280;64090;49.770;18.760;2023-03-01T02:37:46;98728.23;;;-6.10;81.02
75513;BME280;64090;49.770;18.760;2023-03-01T02:40:51;98725.58;;;-6.12;81.04
75513;BME280;64090;49.770;18.760;2023-03-01T02:43:55;98723.64;;;-6.15;80.93
75513;BME280;64090;49.770;18.760;2023-03-01T02:47:01;98722.88;;;-6.17;81.28
75513;BME280;64090;49.770;18.760;2023-03-01T02:53:53;98716.77;;;-6.19;81.58
75513;BME280;64090;49.770;18.760;2023-03-01T02:57:00;98714.72;;;-6.19;81.06
75513;BME280;64090;49.770;18.760;2023-03-01T03:00:15;98711.69;;;-6.17;81.58
75513;BME280;64090;49.770;18.760;2023-03-01T03:03:22;98709.70;;;-6.16;81.57
75513;BME280;64090;49.770;18.760;2023-03-01T03:06:25;98715.29;;;-6.14;82.00
75513;BME280;64090;49.770;18.760;2023-03-01T03:09:28;98720.03;;;-6.12;82.62
75513;BME280;64090;49.770;18.760;2023-03-01T03:12:31;98710.15;;;-6.11;82.75
75513;BME280;64090;49.770;18.760;2023-03-01T03:15:34;98705.95;;;-6.09;82.86
75513;BME280;64090;49.770;18.760;2023-03-01T03:18:38;98706.32;;;-6.10;82.56
75513;BME280;64090;49.770;18.760;2023-03-01T03:21:41;98705.51;;;-6.11;82.67
75513;BME280;64090;49.770;18.760;2023-03-01T03:24:44;98703.82;;;-6.12;83.00
75513;BME280;64090;49.770;18.760;2023-03-01T03:27:49;98691.27;;;-6.13;82.62
75513;BME280;64090;49.770;18.760;2023-03-01T03:30:52;98687.19;;;-6.14;82.90
75513;BME280;64090;49.770;18.760;2023-03-01T03:33:55;98690.19;;;-6.15;82.71
75513;BME280;64090;49.770;18.760;2023-03-01T03:36:59;98692.13;;;-6.20;82.84
75513;BME280;64090;49.770;18.760;2023-03-01T03:40:02;98695.23;;;-6.23;82.46
75513;BME280;64090;49.770;18.760;2023-03-01T03:43:08;98691.98;;;-6.27;82.30
75513;BME280;64090;49.770;18.760;2023-03-01T03:46:12;98701.79;;;-6.30;82.06
75513;BME280;64090;49.770;18.760;2023-03-01T03:49:15;98708.04;;;-6.31;82.33
75513;BME280;64090;49.770;18.760;2023-03-01T03:52:18;98710.43;;;-6.30;82.31
75513;BME280;64090;49.770;18.760;2023-03-01T03:55:21;98711.98;;;-6.30;82.59
75513;BME280;64090;49.770;18.760;2023-03-01T03:58:25;98710.90;;;-6.29;82.80
75513;BME280;64090;49.770;18.760;2023-03-01T04:01:28;98715.70;;;-6.29;82.90
75513;BME280;64090;49.770;18.760;2023-03-01T04:04:31;98716.31;;;-6.27;83.22
75513;BME280;64090;49.770;18.760;2023-03-01T04:07:35;98711.45;;;-6.26;83.06
75513;BME280;64090;49.770;18.760;2023-03-01T04:10:40;98708.02;;;-6.27;83.13
75513;BME280;64090;49.770;18.760;2023-03-01T04:13:43;98710.96;;;-6.27;83.08
75513;BME280;64090;49.770;18.760;2023-03-01T04:16:46;98714.93;;;-6.27;83.21
75513;BME280;64090;49.770;18.760;2023-03-01T04:19:49;98717.63;;;-6.26;83.18
75513;BME280;64090;49.770;18.760;2023-03-01T04:22:59;98717.23;;;-6.25;83.36
75513;BME280;64090;49.770;18.760;2023-03-01T04:26:13;98715.42;;;-6.23;83.42
75513;BME280;64090;49.770;18.760;2023-03-01T04:29:16;98716.20;;;-6.22;83.54
75513;BME280;64090;49.770;18.760;2023-03-01T04:32:19;98710.92;;;-6.19;83.66
75513;BME280;64090;49.770;18.760;2023-03-01T04:35:21;98708.73;;;-6.17;83.48
75513;BME280;64090;49.770;18.760;2023-03-01T04:38:25;98713.30;;;-6.15;83.68
75513;BME280;64090;49.770;18.760;2023-03-01T04:41:28;98721.40;;;-6.15;83.38
75513;BME280;64090;49.770;18.760;2023-03-01T04:44:31;98721.31;;;-6.16;83.57
75513;BME280;64090;49.770;18.760;2023-03-01T04:47:34;98725.36;;;-6.18;83.16
75513;BME280;64090;49.770;18.760;2023-03-01T04:50:40;98726.56;;;-6.22;83.18
75513;BME280;64090;49.770;18.760;2023-03-01T04:53:44;98726.25;;;-6.26;83.25
75513;BME280;64090;49.770;18.760;2023-03-01T04:56:47;98729.30;;;-6.28;82.98
75513;BME280;64090;49.770;18.760;2023-03-01T04:59:49;98728.66;;;-6.33;83.69
75513;BME280;64090;49.770;18.760;2023-03-01T05:02:56;98728.48;;;-6.36;83.40
75513;BME280;64090;49.770;18.760;2023-03-01T05:06:00;98728.55;;;-6.41;83.21
75513;BME280;64090;49.770;18.760;2023-03-01T05:09:03;98724.08;;;-6.45;83.61
75513;BME280;64090;49.770;18.760;2023-03-01T05:12:06;98718.95;;;-6.46;83.24
75513;BME280;64090;49.770;18.760;2023-03-01T05:15:09;98714.05;;;-6.48;82.89
75513;BME280;64090;49.770;18.760;2023-03-01T05:18:13;98706.91;;;-6.50;83.15
75513;BME280;64090;49.770;18.760;2023-03-01T05:21:16;98698.73;;;-6.52;83.61
75513;BME280;64090;49.770;18.760;2023-03-01T05:24:19;98703.60;;;-6.53;83.46
75513;BME280;64090;49.770;18.760;2023-03-01T05:27:23;98706.41;;;-6.54;83.66
75513;BME280;64090;49.770;18.760;2023-03-01T05:30:26;98709.45;;;-6.56;83.40
75513;BME280;64090;49.770;18.760;2023-03-01T05:33:29;98709.88;;;-6.58;83.12
75513;BME280;64090;49.770;18.760;2023-03-01T05:36:32;98715.13;;;-6.60;83.22
75513;BME280;64090;49.770;18.760;2023-03-01T05:39:36;98716.67;;;-6.60;82.91
75513;BME280;64090;49.770;18.760;2023-03-01T05:42:39;98712.98;;;-6.58;82.90
75513;BME280;64090;49.770;18.760;2023-03-01T05:45:42;98712.05;;;-6.53;83.36
75513;BME280;64090;49.770;18.760;2023-03-01T05:48:45;98712.36;;;-6.45;83.16
75513;BME280;64090;49.770;18.760;2023-03-01T05:51:51;98710.19;;;-6.36;83.12
75513;BME280;64090;49.770;18.760;2023-03-01T05:54:54;98708.77;;;-6.24;83.05
75513;BME280;64090;49.770;18.760;2023-03-01T05:57:59;98707.80;;;-6.12;83.34
75513;BME280;64090;49.770;18.760;2023-03-01T06:01:02;98705.88;;;-5.98;83.35
75513;BME280;64090;49.770;18.760;2023-03-01T06:04:05;98707.30;;;-5.82;83.43
75513;BME280;64090;49.770;18.760;2023-03-01T06:07:08;98710.08;;;-5.66;83.40
75513;BME280;64090;49.770;18.760;2023-03-01T06:10:11;98710.36;;;-5.48;83.34
75513;BME280;64090;49.770;18.760;2023-03-01T06:13:14;98706.06;;;-5.29;83.12
75513;BME280;64090;49.770;18.760;2023-03-01T06:16:17;98711.98;;;-5.10;83.04
75513;BME280;64090;49.770;18.760;2023-03-01T06:19:20;98714.21;;;-4.94;83.20
75513;BME280;64090;49.770;18.760;2023-03-01T06:22:24;98713.27;;;-4.80;83.16
75513;BME280;64090;49.770;18.760;2023-03-01T06:25:27;98705.59;;;-4.66;82.86
75513;BME280;64090;49.770;18.760;2023-03-01T06:28:30;98709.52;;;-4.50;82.79
75513;BME280;64090;49.770;18.760;2023-03-01T06:31:33;98708.09;;;-4.34;82.85
75513;BME280;64090;49.770;18.760;2023-03-01T06:34:36;98706.56;;;-4.13;82.88
75513;BME280;64090;49.770;18.760;2023-03-01T06:37:40;98708.52;;;-3.93;82.87
75513;BME280;64090;49.770;18.760;2023-03-01T06:40:44;98701.79;;;-3.73;82.83
75513;BME280;64090;49.770;18.760;2023-03-01T08:14:03;98669.85;;;-0.13;78.10
75513;BME280;64090;49.770;18.760;2023-03-01T10:47:14;98603.91;;;3.60;63.54
75513;BME280;64090;49.770;18.760;2023-03-01T10:51:24;98599.33;;;3.64;62.77
75513;BME280;64090;49.770;18.760;2023-03-01T10:56:02;98587.94;;;3.61;61.24
75513;BME280;64090;49.770;18.760;2023-03-01T11:00:24;98579.11;;;3.62;62.02
75513;BME280;64090;49.770;18.760;2023-03-01T11:04:14;98577.27;;;3.70;61.98
75513;BME280;64090;49.770;18.760;2023-03-01T11:07:55;98575.30;;;3.78;61.60
75513;BME280;64090;49.770;18.760;2023-03-01T11:12:00;98569.48;;;3.86;60.86
75513;BME280;64090;49.770;18.760;2023-03-01T11:16:06;98572.92;;;3.90;60.58
75513;BME280;64090;49.770;18.760;2023-03-01T11:20:01;98572.63;;;3.90;60.03
75513;BME280;64090;49.770;18.760;2023-03-01T11:23:35;98573.17;;;3.92;59.94
75513;BME280;64090;49.770;18.760;2023-03-01T11:27:36;98566.09;;;3.94;59.88
75513;BME280;64090;49.770;18.760;2023-03-01T11:31:15;98555.80;;;3.98;59.99
75513;BME280;64090;49.770;18.760;2023-03-01T11:34:43;98548.16;;;4.03;60.09
75513;BME280;64090;49.770;18.760;2023-03-01T11:38:15;98546.15;;;4.07;60.45
75513;BME280;64090;49.770;18.760;2023-03-01T11:41:36;98537.52;;;4.13;60.64
75513;BME280;64090;49.770;18.760;2023-03-01T11:45:06;98534.98;;;4.23;60.51
75513;BME280;64090;49.770;18.760;2023-03-01T11:56:09;98521.80;;;4.42;59.73
75513;BME280;64090;49.770;18.760;2023-03-01T12:06:50;98513.41;;;4.65;58.92
75513;BME280;64090;49.770;18.760;2023-03-01T12:15:29;98511.41;;;4.77;57.70
75513;BME280;64090;49.770;18.760;2023-03-01T13:23:36;98457.11;;;5.13;53.47
75513;BME280;64090;49.770;18.760;2023-03-01T13:30:46;98456.45;;;5.16;52.20
75513;BME280;64090;49.770;18.760;2023-03-01T13:35:02;98452.05;;;5.16;52.08
75513;BME280;64090;49.770;18.760;2023-03-01T13:41:51;98447.98;;;5.24;51.86
75513;BME280;64090;49.770;18.760;2023-03-01T13:53:17;98440.48;;;5.25;51.53
75513;BME280;64090;49.770;18.760;2023-03-01T13:56:33;98437.77;;;5.22;51.07
75513;BME280;64090;49.770;18.760;2023-03-01T14:00:29;98431.52;;;5.14;50.85
75513;BME280;64090;49.770;18.760;2023-03-01T14:03:52;98432.70;;;5.15;50.83
75513;BME280;64090;49.770;18.760;2023-03-01T14:07:21;98432.67;;;5.13;50.42
75513;BME280;64090;49.770;18.760;2023-03-01T14:10:41;98428.13;;;5.13;50.06
75513;BME280;64090;49.770;18.760;2023-03-01T14:18:47;98430.78;;;5.08;49.98
75513;BME280;64090;49.770;18.760;2023-03-01T14:22:29;98416.09;;;5.07;50.43
75513;BME280;64090;49.770;18.760;2023-03-01T14:25:55;98412.48;;;5.08;49.90
75513;BME280;64090;49.770;18.760;2023-03-01T14:29:24;98414.55;;;5.08;49.82
75513;BME280;64090;49.770;18.760;2023-03-01T14:32:31;98419.14;;;5.05;50.09
75513;BME280;64090;49.770;18.760;2023-03-01T14:35:36;98426.02;;;5.06;49.91
75513;BME280;64090;49.770;18.760;2023-03-01T14:38:45;98425.84;;;5.08;49.63
75513;BME280;64090;49.770;18.760;2023-03-01T14:41:49;98421.39;;;5.07;49.36
75513;BME280;64090;49.770;18.760;2023-03-01T14:45:17;98419.08;;;5.05;49.68
75513;BME280;64090;49.770;18.760;2023-03-01T14:48:44;98418.83;;;5.08;49.67
75513;BME280;64090;49.770;18.760;2023-03-01T14:52:20;98414.94;;;5.06;48.93
75513;BME280;64090;49.770;18.760;2023-03-01T14:56:00;98408.10;;;5.01;48.61
75513;BME280;64090;49.770;18.760;2023-03-01T16:43:47;98398.12;;;1.89;58.52
75513;BME280;64090;49.770;18.760;2023-03-01T16:46:50;98398.70;;;1.78;58.61
75513;BME280;64090;49.770;18.760;2023-03-01T16:49:54;98399.64;;;1.67;58.73
75513;BME280;64090;49.770;18.760;2023-03-01T16:52:58;98402.80;;;1.57;58.89
75513;BME280;64090;49.770;18.760;2023-03-01T16:56:02;98404.69;;;1.49;59.22
75513;BME280;64090;49.770;18.760;2023-03-01T16:59:06;98406.10;;;1.39;59.26
75513;BME280;64090;49.770;18.760;2023-03-01T17:02:10;98406.81;;;1.33;59.28
75513;BME280;64090;49.770;18.760;2023-03-01T17:05:15;98410.08;;;1.25;59.20
75513;BME280;64090;49.770;18.760;2023-03-01T17:08:18;98409.38;;;1.17;59.70
75513;BME280;64090;49.770;18.760;2023-03-01T17:11:22;98411.66;;;1.08;59.51
75513;BME280;64090;49.770;18.760;2023-03-01T17:14:26;98414.14;;;0.99;59.41
75513;BME280;64090;49.770;18.760;2023-03-01T17:17:30;98416.39;;;0.89;59.44
75513;BME280;64090;49.770;18.760;2023-03-01T17:20:34;98422.66;;;0.81;59.45
75513;BME280;64090;49.770;18.760;2023-03-01T17:23:57;98421.54;;;0.73;59.84
75513;BME280;64090;49.770;18.760;2023-03-01T17:31:18;98435.23;;;0.57;60.29
75513;BME280;64090;49.770;18.760;2023-03-01T17:38:58;98440.51;;;0.39;60.61
75513;BME280;64090;49.770;18.760;2023-03-01T17:58:59;98434.30;;;0.08;61.44
75513;BME280;64090;49.770;18.760;2023-03-01T18:06:52;98428.36;;;-0.01;61.87
75513;BME280;64090;49.770;18.760;2023-03-01T18:10:14;98431.58;;;-0.07;61.93
75513;BME280;64090;49.770;18.760;2023-03-01T18:13:17;98432.66;;;-0.11;61.92
75513;BME280;64090;49.770;18.760;2023-03-01T18:16:21;98429.64;;;-0.17;61.78
75513;BME280;64090;49.770;18.760;2023-03-01T18:19:25;98426.63;;;-0.26;62.10
75513;BME280;64090;49.770;18.760;2023-03-01T18:22:30;98422.02;;;-0.38;62.44
75513;BME280;64090;49.770;18.760;2023-03-01T18:25:38;98417.41;;;-0.53;62.56
75513;BME280;64090;49.770;18.760;2023-03-01T18:28:41;98415.70;;;-0.67;62.43
75513;BME280;64090;49.770;18.760;2023-03-01T18:31:44;98409.20;;;-0.75;62.50
75513;BME280;64090;49.770;18.760;2023-03-01T18:34:48;98406.87;;;-0.81;62.81
75513;BME280;64090;49.770;18.760;2023-03-01T18:38:11;98407.61;;;-0.88;63.18
75513;BME280;64090;49.770;18.760;2023-03-01T20:16:42;98413.96;;;-3.35;70.78
